sensor_id;sensor_type;location;lat;lon;timestamp;P1;durP1;ratioP1;P2;durP2;ratioP2
44098;SDS011;29762;50.086;14.364;2022-09-29T00:04:29;3.47;;;1.45;;
44098;SDS011;29762;50.086;14.364;2022-09-29T00:09:49;2.58;;;1.30;;
44098;SDS011;29762;50.086;14.364;2022-09-29T00:15:08;2.50;;;1.23;;
44098;SDS011;29762;50.086;14.364;2022-09-29T00:20:28;1.80;;;1.25;;
44098;SDS011;29762;50.086;14.364;2022-09-29T00:25:47;2.33;;;1.40;;
44098;SDS011;29762;50.086;14.364;2022-09-29T00:31:07;2.65;;;1.20;;
44098;SDS011;29762;50.086;14.364;2022-09-29T00:36:27;1.80;;;1.20;;
44098;SDS011;29762;50.086;14.364;2022-09-29T00:41:47;2.28;;;1.50;;
44098;SDS011;29762;50.086;14.364;2022-09-29T00:47:08;1.80;;;1.33;;
44098;SDS011;29762;50.086;14.364;2022-09-29T00:52:33;2.17;;;1.20;;
44098;SDS011;29762;50.086;14.364;2022-09-29T01:03:17;1.95;;;1.30;;
44098;SDS011;29762;50.086;14.364;2022-09-29T01:08:46;1.92;;;1.30;;
44098;SDS011;29762;50.086;14.364;2022-09-29T01:14:10;1.30;;;1.10;;
44098;SDS011;29762;50.086;14.364;2022-09-29T01:41:58;2.28;;;1.25;;
44098;SDS011;29762;50.086;14.364;2022-09-29T01:47:29;1.27;;;1.10;;
44098;SDS011;29762;50.086;14.364;2022-09-29T01:52:55;2.80;;;1.15;;
44098;SDS011;29762;50.086;14.364;2022-09-29T01:58:23;1.50;;;1.10;;
44098;SDS011;29762;50.086;14.364;2022-09-29T02:03:47;1.20;;;0.90;;
44098;SDS011;29762;50.086;14.364;2022-09-29T02:09:18;1.42;;;1.20;;
44098;SDS011;29762;50.086;14.364;2022-09-29T02:14:42;1.50;;;1.02;;
44098;SDS011;29762;50.086;14.364;2022-09-29T02:20:04;1.30;;;1.10;;
44098;SDS011;29762;50.086;14.364;2022-09-29T02:25:23;2.10;;;1.15;;
44098;SDS011;29762;50.086;14.364;2022-09-29T02:30:43;1.83;;;1.20;;
44098;SDS011;29762;50.086;14.364;2022-09-29T02:47:55;1.23;;;1.10;;
44098;SDS011;29762;50.086;14.364;2022-09-29T02:58:56;0.98;;;0.88;;
44098;SDS011;29762;50.086;14.364;2022-09-29T03:04:19;1.58;;;0.90;;
44098;SDS011;29762;50.086;14.364;2022-09-29T03:09:40;1.02;;;0.80;;
44098;SDS011;29762;50.086;14.364;2022-09-29T03:15:00;1.70;;;1.00;;
44098;SDS011;29762;50.086;14.364;2022-09-29T03:20:19;0.98;;;0.80;;
44098;SDS011;29762;50.086;14.364;2022-09-29T03:25:39;0.80;;;0.80;;
44098;SDS011;29762;50.086;14.364;2022-09-29T03:31:03;1.15;;;0.90;;
44098;SDS011;29762;50.086;14.364;2022-09-29T03:36:24;1.75;;;0.90;;
44098;SDS011;29762;50.086;14.364;2022-09-29T03:41:44;1.42;;;0.98;;
44098;SDS011;29762;50.086;14.364;2022-09-29T03:47:03;1.00;;;0.80;;
44098;SDS011;29762;50.086;14.364;2022-09-29T03:52:22;1.10;;;1.00;;
44098;SDS011;29762;50.086;14.364;2022-09-29T03:57:42;0.65;;;0.63;;
44098;SDS011;29762;50.086;14.364;2022-09-29T04:03:02;0.80;;;0.70;;
44098;SDS011;29762;50.086;14.364;2022-09-29T04:08:22;1.90;;;1.10;;
44098;SDS011;29762;50.086;14.364;2022-09-29T04:13:41;1.42;;;1.10;;
44098;SDS011;29762;50.086;14.364;2022-09-29T04:19:00;0.93;;;0.80;;
44098;SDS011;29762;50.086;14.364;2022-09-29T04:24:19;1.85;;;0.95;;
44098;SDS011;29762;50.086;14.364;2022-09-29T04:29:39;1.23;;;0.85;;
44098;SDS011;29762;50.086;14.364;2022-09-29T04:34:58;0.88;;;0.82;;
44098;SDS011;29762;50.086;14.364;2022-09-29T04:40:17;0.93;;;0.80;;
44098;SDS011;29762;50.086;14.364;2022-09-29T04:45:37;1.23;;;0.90;;
44098;SDS011;29762;50.086;14.364;2022-09-29T04:50:56;1.27;;;0.98;;
44098;SDS011;29762;50.086;14.364;2022-09-29T04:56:17;1.50;;;1.10;;
44098;SDS011;29762;50.086;14.364;2022-09-29T05:01:37;2.40;;;1.00;;
44098;SDS011;29762;50.086;14.364;2022-09-29T05:06:56;3.03;;;1.77;;
44098;SDS011;29762;50.086;14.364;2022-09-29T05:12:16;8.95;;;2.20;;
44098;SDS011;29762;50.086;14.364;2022-09-29T05:17:35;13.45;;;2.67;;
44098;SDS011;29762;50.086;14.364;2022-09-29T05:22:56;7.40;;;2.90;;
44098;SDS011;29762;50.086;14.364;2022-09-29T05:28:16;8.95;;;2.70;;
44098;SDS011;29762;50.086;14.364;2022-09-29T05:33:35;6.57;;;2.38;;
44098;SDS011;29762;50.086;14.364;2022-09-29T05:38:55;6.80;;;2.50;;
44098;SDS011;29762;50.086;14.364;2022-09-29T05:44:14;8.63;;;2.60;;
44098;SDS011;29762;50.086;14.364;2022-09-29T05:49:34;7.13;;;2.33;;
44098;SDS011;29762;50.086;14.364;2022-09-29T05:54:54;7.18;;;2.42;;
44098;SDS011;29762;50.086;14.364;2022-09-29T06:00:14;3.90;;;2.20;;
44098;SDS011;29762;50.086;14.364;2022-09-29T06:05:36;4.65;;;2.50;;
44098;SDS011;29762;50.086;14.364;2022-09-29T06:11:03;4.18;;;2.47;;
44098;SDS011;29762;50.086;14.364;2022-09-29T06:16:27;4.97;;;2.33;;
44098;SDS011;29762;50.086;14.364;2022-09-29T06:21:47;5.40;;;2.38;;
44098;SDS011;29762;50.086;14.364;2022-09-29T06:27:07;3.75;;;2.05;;
44098;SDS011;29762;50.086;14.364;2022-09-29T06:32:26;5.57;;;2.05;;
44098;SDS011;29762;50.086;14.364;2022-09-29T06:37:45;4.38;;;2.20;;
44098;SDS011;29762;50.086;14.364;2022-09-29T06:43:05;4.63;;;2.10;;
44098;SDS011;29762;50.086;14.364;2022-09-29T06:48:24;4.35;;;2.45;;
44098;SDS011;29762;50.086;14.364;2022-09-29T06:53:44;3.92;;;2.20;;
44098;SDS011;29762;50.086;14.364;2022-09-29T06:59:05;3.00;;;1.92;;
44098;SDS011;29762;50.086;14.364;2022-09-29T07:04:25;4.60;;;2.08;;
44098;SDS011;29762;50.086;14.364;2022-09-29T07:09:44;4.30;;;2.25;;
44098;SDS011;29762;50.086;14.364;2022-09-29T07:15:04;3.13;;;2.03;;
44098;SDS011;29762;50.086;14.364;2022-09-29T07:20:27;5.00;;;2.22;;
44098;SDS011;29762;50.086;14.364;2022-09-29T07:25:47;3.95;;;2.13;;
44098;SDS011;29762;50.086;14.364;2022-09-29T07:31:11;4.63;;;2.97;;
44098;SDS011;29762;50.086;14.364;2022-09-29T07:36:32;5.35;;;4.85;;
44098;SDS011;29762;50.086;14.364;2022-09-29T07:41:52;5.35;;;2.40;;
44098;SDS011;29762;50.086;14.364;2022-09-29T07:47:13;3.17;;;2.85;;
44098;SDS011;29762;50.086;14.364;2022-09-29T07:52:33;4.82;;;2.83;;
44098;SDS011;29762;50.086;14.364;2022-09-29T07:57:52;3.25;;;2.60;;
44098;SDS011;29762;50.086;14.364;2022-09-29T08:03:12;3.03;;;2.50;;
44098;SDS011;29762;50.086;14.364;2022-09-29T08:08:33;4.82;;;2.75;;
44098;SDS011;29762;50.086;14.364;2022-09-29T08:13:54;2.85;;;2.40;;
44098;SDS011;29762;50.086;14.364;2022-09-29T08:19:14;3.45;;;2.60;;
44098;SDS011;29762;50.086;14.364;2022-09-29T08:24:33;7.47;;;3.55;;
44098;SDS011;29762;50.086;14.364;2022-09-29T08:29:54;7.65;;;3.40;;
44098;SDS011;29762;50.086;14.364;2022-09-29T08:35:16;10.77;;;4.57;;
44098;SDS011;29762;50.086;14.364;2022-09-29T08:40:35;18.58;;;5.30;;
44098;SDS011;29762;50.086;14.364;2022-09-29T08:45:59;13.68;;;6.45;;
44098;SDS011;29762;50.086;14.364;2022-09-29T08:51:35;23.38;;;9.80;;
44098;SDS011;29762;50.086;14.364;2022-09-29T08:56:58;16.73;;;5.78;;
44098;SDS011;29762;50.086;14.364;2022-09-29T09:02:23;13.63;;;5.18;;
44098;SDS011;29762;50.086;14.364;2022-09-29T09:24:58;13.15;;;4.82;;
44098;SDS011;29762;50.086;14.364;2022-09-29T09:30:19;6.20;;;3.70;;
44098;SDS011;29762;50.086;14.364;2022-09-29T09:35:46;10.43;;;3.95;;
44098;SDS011;29762;50.086;14.364;2022-09-29T09:41:08;9.32;;;4.25;;
44098;SDS011;29762;50.086;14.364;2022-09-29T09:46:30;7.97;;;3.88;;
44098;SDS011;29762;50.086;14.364;2022-09-29T09:51:53;9.60;;;4.20;;
44098;SDS011;29762;50.086;14.364;2022-09-29T10:03:03;7.80;;;3.80;;
44098;SDS011;29762;50.086;14.364;2022-09-29T10:13:44;7.82;;;3.60;;
44098;SDS011;29762;50.086;14.364;2022-09-29T10:19:04;7.47;;;3.90;;
44098;SDS011;29762;50.086;14.364;2022-09-29T10:24:28;8.88;;;4.28;;
44098;SDS011;29762;50.086;14.364;2022-09-29T10:29:51;6.82;;;3.20;;
44098;SDS011;29762;50.086;14.364;2022-09-29T10:40:35;6.03;;;3.17;;
44098;SDS011;29762;50.086;14.364;2022-09-29T10:45:55;5.45;;;3.10;;
44098;SDS011;29762;50.086;14.364;2022-09-29T10:51:18;5.25;;;3.50;;
44098;SDS011;29762;50.086;14.364;2022-09-29T10:56:47;5.85;;;3.08;;
44098;SDS011;29762;50.086;14.364;2022-09-29T11:02:09;5.57;;;2.88;;
44098;SDS011;29762;50.086;14.364;2022-09-29T11:07:41;5.90;;;3.08;;
44098;SDS011;29762;50.086;14.364;2022-09-29T11:13:30;6.20;;;3.03;;
44098;SDS011;29762;50.086;14.364;2022-09-29T11:18:53;5.80;;;3.28;;
44098;SDS011;29762;50.086;14.364;2022-09-29T11:30:00;5.63;;;3.03;;
44098;SDS011;29762;50.086;14.364;2022-09-29T11:40:55;5.55;;;2.80;;
44098;SDS011;29762;50.086;14.364;2022-09-29T11:57:17;7.03;;;3.00;;
44098;SDS011;29762;50.086;14.364;2022-09-29T12:08:59;6.38;;;2.70;;
44098;SDS011;29762;50.086;14.364;2022-09-29T12:25:55;9.07;;;3.58;;
44098;SDS011;29762;50.086;14.364;2022-09-29T12:31:16;10.45;;;4.13;;
44098;SDS011;29762;50.086;14.364;2022-09-29T12:37:03;12.30;;;3.97;;
44098;SDS011;29762;50.086;14.364;2022-09-29T12:42:51;9.18;;;3.97;;
44098;SDS011;29762;50.086;14.364;2022-09-29T12:53:59;10.05;;;4.00;;
44098;SDS011;29762;50.086;14.364;2022-09-29T12:59:37;10.75;;;4.60;;
44098;SDS011;29762;50.086;14.364;2022-09-29T13:28:17;7.35;;;2.95;;
44098;SDS011;29762;50.086;14.364;2022-09-29T13:33:47;5.30;;;2.50;;
44098;SDS011;29762;50.086;14.364;2022-09-29T13:44:39;5.00;;;2.72;;
44098;SDS011;29762;50.086;14.364;2022-09-29T13:50:46;6.38;;;2.58;;
44098;SDS011;29762;50.086;14.364;2022-09-29T14:01:32;3.40;;;2.13;;
44098;SDS011;29762;50.086;14.364;2022-09-29T14:06:53;3.95;;;1.95;;
44098;SDS011;29762;50.086;14.364;2022-09-29T14:12:18;4.88;;;1.88;;
44098;SDS011;29762;50.086;14.364;2022-09-29T14:17:43;4.60;;;2.00;;
44098;SDS011;29762;50.086;14.364;2022-09-29T14:23:09;3.55;;;2.00;;
44098;SDS011;29762;50.086;14.364;2022-09-29T14:28:33;4.63;;;1.90;;
44098;SDS011;29762;50.086;14.364;2022-09-29T14:33:57;2.63;;;1.50;;
44098;SDS011;29762;50.086;14.364;2022-09-29T14:39:21;2.60;;;1.70;;
44098;SDS011;29762;50.086;14.364;2022-09-29T14:44:41;2.13;;;1.60;;
44098;SDS011;29762;50.086;14.364;2022-09-29T15:07:30;3.92;;;1.35;;
44098;SDS011;29762;50.086;14.364;2022-09-29T15:19:13;2.90;;;1.50;;
44098;SDS011;29762;50.086;14.364;2022-09-29T15:24:44;3.95;;;1.55;;
44098;SDS011;29762;50.086;14.364;2022-09-29T15:30:15;6.05;;;1.85;;
44098;SDS011;29762;50.086;14.364;2022-09-29T15:35:37;5.90;;;1.70;;
44098;SDS011;29762;50.086;14.364;2022-09-29T15:46:36;3.65;;;1.70;;
44098;SDS011;29762;50.086;14.364;2022-09-29T15:52:11;1.95;;;1.70;;
44098;SDS011;29762;50.086;14.364;2022-09-29T15:57:42;3.47;;;1.50;;
44098;SDS011;29762;50.086;14.364;2022-09-29T16:08:33;3.70;;;1.80;;
44098;SDS011;29762;50.086;14.364;2022-09-29T16:14:02;3.50;;;1.70;;
44098;SDS011;29762;50.086;14.364;2022-09-29T16:19:37;3.45;;;1.42;;
44098;SDS011;29762;50.086;14.364;2022-09-29T16:25:10;3.28;;;1.90;;
44098;SDS011;29762;50.086;14.364;2022-09-29T16:30:40;4.50;;;1.67;;
44098;SDS011;29762;50.086;14.364;2022-09-29T16:36:22;2.15;;;1.58;;
44098;SDS011;29762;50.086;14.364;2022-09-29T16:41:43;1.90;;;1.40;;
44098;SDS011;29762;50.086;14.364;2022-09-29T17:03:29;2.33;;;1.40;;
44098;SDS011;29762;50.086;14.364;2022-09-29T17:08:49;2.58;;;1.30;;
44098;SDS011;29762;50.086;14.364;2022-09-29T17:14:09;2.30;;;1.30;;
44098;SDS011;29762;50.086;14.364;2022-09-29T17:19:31;2.55;;;1.52;;
44098;SDS011;29762;50.086;14.364;2022-09-29T17:24:51;3.42;;;1.40;;
44098;SDS011;29762;50.086;14.364;2022-09-29T17:30:11;2.75;;;1.60;;
44098;SDS011;29762;50.086;14.364;2022-09-29T17:35:36;2.25;;;1.48;;
44098;SDS011;29762;50.086;14.364;2022-09-29T17:41:01;2.50;;;1.30;;
44098;SDS011;29762;50.086;14.364;2022-09-29T17:46:21;2.08;;;1.50;;
44098;SDS011;29762;50.086;14.364;2022-09-29T17:51:41;2.53;;;1.50;;
44098;SDS011;29762;50.086;14.364;2022-09-29T17:57:01;2.22;;;1.70;;
44098;SDS011;29762;50.086;14.364;2022-09-29T18:02:20;6.90;;;5.05;;
44098;SDS011;29762;50.086;14.364;2022-09-29T18:07:41;5.05;;;3.03;;
44098;SDS011;29762;50.086;14.364;2022-09-29T18:13:00;4.32;;;3.25;;
44098;SDS011;29762;50.086;14.364;2022-09-29T18:18:20;4.45;;;3.05;;
44098;SDS011;29762;50.086;14.364;2022-09-29T18:23:40;4.70;;;2.97;;
44098;SDS011;29762;50.086;14.364;2022-09-29T18:29:00;4.28;;;3.33;;
44098;SDS011;29762;50.086;14.364;2022-09-29T18:34:35;3.83;;;3.30;;
44098;SDS011;29762;50.086;14.364;2022-09-29T18:39:55;4.47;;;3.08;;
44098;SDS011;29762;50.086;14.364;2022-09-29T18:45:15;5.00;;;3.47;;
44098;SDS011;29762;50.086;14.364;2022-09-29T18:50:42;3.22;;;2.90;;
44098;SDS011;29762;50.086;14.364;2022-09-29T18:56:03;3.50;;;2.92;;
44098;SDS011;29762;50.086;14.364;2022-09-29T19:01:23;4.97;;;3.10;;
44098;SDS011;29762;50.086;14.364;2022-09-29T19:06:45;5.47;;;3.08;;
44098;SDS011;29762;50.086;14.364;2022-09-29T19:12:04;6.10;;;2.80;;
44098;SDS011;29762;50.086;14.364;2022-09-29T19:17:25;5.47;;;2.97;;
44098;SDS011;29762;50.086;14.364;2022-09-29T19:22:45;4.38;;;3.03;;
44098;SDS011;29762;50.086;14.364;2022-09-29T19:28:05;7.13;;;3.30;;
44098;SDS011;29762;50.086;14.364;2022-09-29T19:33:24;5.57;;;2.97;;
44098;SDS011;29762;50.086;14.364;2022-09-29T19:38:44;4.50;;;2.97;;
44098;SDS011;29762;50.086;14.364;2022-09-29T19:44:06;6.22;;;3.00;;
44098;SDS011;29762;50.086;14.364;2022-09-29T19:49:27;4.35;;;3.05;;
44098;SDS011;29762;50.086;14.364;2022-09-29T19:54:47;3.78;;;2.88;;
44098;SDS011;29762;50.086;14.364;2022-09-29T20:00:07;5.20;;;2.72;;
44098;SDS011;29762;50.086;14.364;2022-09-29T20:05:33;3.25;;;2.53;;
44098;SDS011;29762;50.086;14.364;2022-09-29T20:10:53;3.90;;;2.80;;
44098;SDS011;29762;50.086;14.364;2022-09-29T20:16:12;3.67;;;2.75;;
44098;SDS011;29762;50.086;14.364;2022-09-29T20:21:32;5.10;;;2.67;;
44098;SDS011;29762;50.086;14.364;2022-09-29T20:26:52;4.28;;;2.65;;
44098;SDS011;29762;50.086;14.364;2022-09-29T20:32:15;5.63;;;2.70;;
44098;SDS011;29762;50.086;14.364;2022-09-29T20:37:38;4.43;;;2.47;;
44098;SDS011;29762;50.086;14.364;2022-09-29T20:42:58;4.53;;;2.47;;
44098;SDS011;29762;50.086;14.364;2022-09-29T20:48:17;2.95;;;2.45;;
44098;SDS011;29762;50.086;14.364;2022-09-29T20:53:36;3.60;;;2.55;;
44098;SDS011;29762;50.086;14.364;2022-09-29T20:58:58;4.40;;;2.45;;
44098;SDS011;29762;50.086;14.364;2022-09-29T21:04:19;3.45;;;2.50;;
44098;SDS011;29762;50.086;14.364;2022-09-29T21:09:38;4.50;;;2.72;;
44098;SDS011;29762;50.086;14.364;2022-09-29T21:14:58;3.65;;;2.53;;
44098;SDS011;29762;50.086;14.364;2022-09-29T21:20:18;2.92;;;2.28;;
44098;SDS011;29762;50.086;14.364;2022-09-29T21:25:37;2.92;;;2.25;;
44098;SDS011;29762;50.086;14.364;2022-09-29T21:31:01;4.00;;;2.40;;
44098;SDS011;29762;50.086;14.364;2022-09-29T21:36:22;6.45;;;2.40;;
44098;SDS011;29762;50.086;14.364;2022-09-29T21:41:44;3.50;;;2.40;;
44098;SDS011;29762;50.086;14.364;2022-09-29T21:47:03;2.70;;;2.38;;
44098;SDS011;29762;50.086;14.364;2022-09-29T21:52:23;3.33;;;2.42;;
44098;SDS011;29762;50.086;14.364;2022-09-29T21:57:42;2.38;;;2.10;;
44098;SDS011;29762;50.086;14.364;2022-09-29T22:03:02;2.58;;;2.38;;
44098;SDS011;29762;50.086;14.364;2022-09-29T22:08:21;2.40;;;2.20;;
44098;SDS011;29762;50.086;14.364;2022-09-29T22:13:44;2.55;;;2.35;;
44098;SDS011;29762;50.086;14.364;2022-09-29T22:19:06;2.65;;;2.13;;
44098;SDS011;29762;50.086;14.364;2022-09-29T22:24:26;2.40;;;2.10;;
44098;SDS011;29762;50.086;14.364;2022-09-29T22:29:46;2.90;;;2.20;;
44098;SDS011;29762;50.086;14.364;2022-09-29T22:35:05;3.03;;;2.30;;
44098;SDS011;29762;50.086;14.364;2022-09-29T22:40:26;3.38;;;2.20;;
44098;SDS011;29762;50.086;14.364;2022-09-29T22:45:46;2.85;;;2.40;;
44098;SDS011;29762;50.086;14.364;2022-09-29T22:51:06;2.20;;;2.00;;
44098;SDS011;29762;50.086;14.364;2022-09-29T22:56:26;3.60;;;2.13;;
44098;SDS011;29762;50.086;14.364;2022-09-29T23:01:48;2.38;;;2.15;;
44098;SDS011;29762;50.086;14.364;2022-09-29T23:07:07;2.10;;;1.75;;
44098;SDS011;29762;50.086;14.364;2022-09-29T23:12:27;2.50;;;2.03;;
44098;SDS011;29762;50.086;14.364;2022-09-29T23:17:46;2.10;;;1.90;;
44098;SDS011;29762;50.086;14.364;2022-09-29T23:23:06;2.00;;;1.80;;
44098;SDS011;29762;50.086;14.364;2022-09-29T23:28:26;2.75;;;2.05;;
44098;SDS011;29762;50.086;14.364;2022-09-29T23:33:52;2.35;;;1.85;;
44098;SDS011;29762;50.086;14.364;2022-09-29T23:39:13;2.20;;;2.00;;
44098;SDS011;29762;50.086;14.364;2022-09-29T23:44:33;2.42;;;1.95;;
44098;SDS011;29762;50.086;14.364;2022-09-29T23:49:54;2.30;;;2.10;;
44098;SDS011;29762;50.086;14.364;2022-09-29T23:55:13;2.30;;;1.95;;
